Time;durP1;ratioP1;P1;durP2;ratioP2;P2;SDS_P1;SDS_P2;PMS_P1;PMS_P2;Temp;Humidity;BMP_temperature;BMP_pressure;BME280_temperature;BME280_humidity;BME280_pressure;Samples;Min_cycle;Max_cycle;Signal;HPM_P1;HPM_P2
2021/11/30 00:02:16;;;;;;;6.10;3.00;;;;;;;1.70;73.09;96568.59;102144;1317;62194;-23
2021/11/30 00:04:45;;;;;;;2.50;2.00;;;;;;;1.51;73.47;96578.61;102075;1314;75176;-23
2021/11/30 00:07:13;;;;;;;3.20;2.20;;;;;;;1.34;74.92;96592.52;101699;1313;76062;-23
2021/11/30 00:12:19;;;;;;;4.10;3.00;;;;;;;1.28;74.78;96565.20;101828;1314;61078;-23
2021/11/30 00:14:48;;;;;;;7.70;3.90;;;;;;;1.50;73.37;96554.58;101770;1314;62122;-23
2021/11/30 00:17:17;;;;;;;2.70;2.40;;;;;;;1.53;73.01;96589.94;101982;1314;74218;-23
2021/11/30 00:19:48;;;;;;;5.60;3.50;;;;;;;1.40;73.26;96580.75;101871;1321;75824;-23
2021/11/30 00:22:18;;;;;;;4.20;3.00;;;;;;;1.25;73.32;96572.77;101952;1317;74440;-23
2021/11/30 00:24:47;;;;;;;5.60;3.30;;;;;;;1.12;73.99;96579.83;101661;1316;61129;-23
2021/11/30 00:27:15;;;;;;;2.90;2.30;;;;;;;1.42;73.30;96585.04;101663;1313;61094;-23
2021/11/30 00:29:44;;;;;;;5.70;3.20;;;;;;;1.73;72.27;96609.48;101678;1317;74448;-23
2021/11/30 00:32:13;;;;;;;3.00;2.40;;;;;;;1.69;71.97;96581.98;102008;1313;76097;-23
2021/11/30 00:34:41;;;;;;;5.20;3.10;;;;;;;1.58;72.77;96613.48;102159;1313;74586;-24
2021/11/30 00:37:10;;;;;;;5.70;3.60;;;;;;;1.39;73.15;96601.85;101888;1315;61191;-23
2021/11/30 00:39:39;;;;;;;4.60;3.40;;;;;;;1.14;73.19;96575.52;101976;1316;61091;-23
2021/11/30 00:44:02;;;;;;;3.80;3.00;;;;;;;1.38;72.78;96586.19;98905;1352;601024;-23
2021/11/30 00:49:03;;;;;;;4.60;3.00;;;;;;;1.52;71.42;96582.67;101060;1331;61132;-23
2021/11/30 00:51:37;;;;;;;5.00;3.40;;;;;;;1.40;71.59;96592.19;100738;1330;73251;-23
2021/11/30 00:54:09;;;;;;;4.60;3.30;;;;;;;1.18;72.53;96588.56;100705;1329;75920;-23
2021/11/30 00:56:40;;;;;;;6.30;4.00;;;;;;;1.09;72.49;96584.54;100633;1328;171296;-24
2021/11/30 00:59:09;;;;;;;8.20;3.90;;;;;;;1.39;72.09;96597.41;100691;1328;61187;-23
2021/11/30 01:01:39;;;;;;;2.70;2.30;;;;;;;1.50;70.69;96597.05;101275;1323;61118;-23
2021/11/30 01:04:10;;;;;;;4.10;3.00;;;;;;;1.52;70.80;96614.66;101318;1323;74041;-23
2021/11/30 01:06:39;;;;;;;4.80;3.60;;;;;;;1.39;71.54;96636.92;101208;1325;74654;-23
2021/11/30 01:09:08;;;;;;;6.10;4.00;;;;;;;1.27;71.68;96619.56;101246;1324;71581;-23
2021/11/30 01:11:37;;;;;;;6.20;3.80;;;;;;;1.11;72.52;96630.45;101318;1325;61431;-23
2021/11/30 01:14:06;;;;;;;4.90;3.50;;;;;;;1.29;71.28;96602.35;101212;1326;61279;-23
2021/11/30 01:16:34;;;;;;;5.10;3.10;;;;;;;1.58;69.59;96597.90;101046;1328;74844;-23
2021/11/30 01:19:04;;;;;;;4.70;3.20;;;;;;;1.61;69.80;96620.06;101318;1325;74887;-23
2021/11/30 01:21:33;;;;;;;3.60;2.70;;;;;;;1.51;70.04;96644.95;101348;1325;73476;-23
2021/11/30 01:24:02;;;;;;;4.80;3.50;;;;;;;1.33;70.55;96640.33;100913;1328;61357;-23
2021/11/30 01:26:31;;;;;;;4.20;3.10;;;;;;;1.19;70.93;96643.48;101151;1329;61201;-23
2021/11/30 01:29:00;;;;;;;3.30;2.80;;;;;;;1.18;71.07;96659.31;101034;1325;74964;-23
2021/11/30 01:31:29;;;;;;;3.80;2.50;;;;;;;1.52;69.96;96657.95;101265;1325;76023;-24
2021/11/30 01:33:57;;;;;;;3.00;1.80;;;;;;;1.76;69.25;96678.21;101294;1325;74577;-23
2021/11/30 01:36:26;;;;;;;2.60;1.90;;;;;;;1.80;68.80;96681.93;101316;1324;61189;-23
2021/11/30 01:38:54;;;;;;;5.30;3.20;;;;;;;1.62;69.04;96675.23;101269;1326;62130;-23
2021/11/30 01:41:23;;;;;;;4.90;2.80;;;;;;;1.42;69.39;96667.80;101278;1325;73877;-24
2021/11/30 01:43:52;;;;;;;2.50;1.60;;;;;;;1.32;69.95;96678.66;101273;1325;76087;-23
2021/11/30 01:51:37;;;;;;;3.60;2.60;;;;;;;1.75;68.10;96657.21;101239;1325;61505;-23
2021/11/30 01:54:05;;;;;;;4.20;2.50;;;;;;;1.82;67.64;96672.39;101146;1328;73541;-23
2021/11/30 01:56:35;;;;;;;2.70;2.40;;;;;;;1.63;68.29;96682.98;101732;1317;74863;-24
2021/11/30 01:59:04;;;;;;;2.70;2.10;;;;;;;1.45;68.71;96692.84;101705;1317;74647;-23
2021/11/30 02:01:32;;;;;;;2.50;1.70;;;;;;;1.37;68.90;96694.73;101711;1321;61509;-23
2021/11/30 02:04:02;;;;;;;2.60;2.00;;;;;;;1.29;69.20;96690.08;101754;1319;61109;-23
2021/11/30 02:06:30;;;;;;;2.70;1.90;;;;;;;1.15;69.66;96678.70;101673;1319;72714;-23
2021/11/30 02:08:59;;;;;;;4.30;2.10;;;;;;;1.09;69.81;96682.21;101765;1319;76006;-23
2021/11/30 02:11:28;;;;;;;3.50;2.50;;;;;;;1.48;68.61;96672.58;101743;1319;74490;-23
2021/11/30 02:13:56;;;;;;;4.80;3.60;;;;;;;1.62;68.38;96695.56;101704;1319;61196;-23
2021/11/30 02:16:25;;;;;;;1.80;1.60;;;;;;;1.53;68.53;96666.75;101726;1317;61149;-23
2021/11/30 02:18:55;;;;;;;4.00;2.70;;;;;;;1.38;69.24;96696.84;101745;1319;74545;-24
2021/11/30 02:21:25;;;;;;;4.40;3.30;;;;;;;1.21;69.94;96677.15;101719;1319;75553;-23
2021/11/30 02:23:59;;;;;;;5.10;3.00;;;;;;;1.12;70.25;96697.34;101730;1317;73476;-23
2021/11/30 02:26:28;;;;;;;3.80;3.00;;;;;;;1.06;70.79;96689.66;101763;1317;61231;-23
2021/11/30 02:28:57;;;;;;;4.20;3.40;;;;;;;1.26;70.27;96716.12;101707;1319;61253;-23
2021/11/30 02:31:30;;;;;;;3.50;2.80;;;;;;;1.61;68.81;96705.20;101764;1317;73802;-24
2021/11/30 02:33:59;;;;;;;;;;;;;;;1.65;68.70;96724.08;101624;1319;75161;-24
2021/11/30 02:36:31;;;;;;;3.70;2.90;;;;;;;1.35;69.32;96702.88;101731;1319;74520;-23
2021/11/30 02:39:02;;;;;;;4.30;3.20;;;;;;;1.20;70.01;96713.35;101731;1321;61327;-23
2021/11/30 02:41:31;;;;;;;4.60;3.50;;;;;;;1.07;70.41;96729.55;101683;1321;62110;-24
2021/11/30 02:44:00;;;;;;;3.20;2.90;;;;;;;1.02;70.66;96728.23;101770;1322;73791;-23
2021/11/30 02:46:30;;;;;;;4.70;2.50;;;;;;;1.19;70.15;96710.86;101769;1317;76059;-23
2021/11/30 02:48:59;;;;;;;3.40;2.30;;;;;;;1.40;69.01;96704.05;101736;1319;71423;-23
2021/11/30 02:51:27;;;;;;;2.90;2.50;;;;;;;1.35;69.00;96727.64;101717;1317;61901;-23
2021/11/30 02:53:59;;;;;;;3.70;2.60;;;;;;;1.31;69.04;96717.57;101705;1319;62301;-23
2021/11/30 02:56:28;;;;;;;5.40;3.10;;;;;;;1.22;69.61;96743.97;101777;1318;73952;-24
2021/11/30 02:58:56;;;;;;;3.70;2.60;;;;;;;0.95;70.76;96738.52;101792;1317;74676;-23
2021/11/30 03:01:24;;;;;;;6.60;2.90;;;;;;;0.90;70.87;96751.74;101734;1319;73429;-23
2021/11/30 03:03:53;;;;;;;3.10;2.30;;;;;;;1.09;70.54;96758.93;101706;1319;61145;-23
2021/11/30 03:06:21;;;;;;;4.40;2.80;;;;;;;1.45;68.75;96725.17;101764;1318;61170;-23
2021/11/30 03:08:50;;;;;;;3.30;2.40;;;;;;;1.55;67.99;96728.11;101697;1319;73372;-23
2021/11/30 03:11:18;;;;;;;3.70;2.90;;;;;;;1.22;69.30;96734.66;101712;1317;75930;-23
2021/11/30 03:13:58;;;;;;;4.10;3.00;;;;;;;1.11;70.20;96751.47;101735;1319;74169;-24
2021/11/30 03:16:40;;;;;;;3.90;2.80;;;;;;;1.01;70.42;96764.20;101740;1317;61091;-23
2021/11/30 03:19:10;;;;;;;4.30;2.30;;;;;;;0.92;71.12;96759.39;101757;1317;62110;-23
2021/11/30 03:21:39;;;;;;;4.50;3.20;;;;;;;1.13;70.52;96744.83;101794;1317;73227;-24
2021/11/30 03:24:07;;;;;;;2.60;1.90;;;;;;;1.37;69.26;96766.84;101773;1319;76881;-23
2021/11/30 03:26:36;;;;;;;3.40;2.80;;;;;;;1.45;69.10;96764.98;101748;1319;73371;-24
2021/11/30 03:29:06;;;;;;;3.40;2.50;;;;;;;1.29;69.38;96765.77;101773;1319;61153;-23
2021/11/30 03:34:14;;;;;;;2.30;2.00;;;;;;;1.01;70.14;96770.36;101782;1319;74253;-24
2021/11/30 03:36:43;;;;;;;;;;;;;;;0.89;70.56;96761.34;101754;1322;76147;-23
2021/11/30 03:39:13;;;;;;;2.90;2.10;;;;;;;0.81;71.14;96774.52;101653;1319;73612;-23
2021/11/30 03:41:42;;;;;;;4.30;2.60;;;;;;;1.10;69.26;96775.97;101469;1314;61232;-25
2021/11/30 03:44:10;;;;;;;3.80;2.40;;;;;;;1.28;68.97;96772.34;101471;1325;61529;-23
2021/11/30 03:46:43;;;;;;;2.80;2.20;;;;;;;1.08;69.79;96771.17;101682;1317;74593;-23
2021/11/30 03:49:14;;;;;;;3.10;2.20;;;;;;;0.93;70.37;96782.39;101705;1319;75284;-23
2021/11/30 03:51:43;;;;;;;2.30;1.90;;;;;;;0.76;70.50;96762.73;101753;1317;74371;-23
2021/11/30 03:54:12;;;;;;;3.30;2.60;;;;;;;0.71;71.05;96788.40;101786;1317;61103;-24
2021/11/30 03:56:42;;;;;;;2.50;2.00;;;;;;;0.61;71.80;96794.26;101755;1317;61101;-23
2021/11/30 03:59:11;;;;;;;2.80;2.10;;;;;;;0.89;70.45;96789.27;101739;1317;74594;-23
2021/11/30 04:01:40;;;;;;;2.10;1.70;;;;;;;1.27;69.46;96809.20;101717;1319;75078;-23
2021/11/30 04:04:31;;;;;;;3.50;2.10;;;;;;;1.10;70.10;96801.42;101748;1322;74497;-23
2021/11/30 04:06:59;;;;;;;3.10;2.60;;;;;;;0.91;71.01;96811.66;101728;1319;61384;-23
2021/11/30 04:09:47;;;;;;;4.60;2.40;;;;;;;0.84;71.36;96808.20;101685;1317;63638;-23
2021/11/30 04:12:15;;;;;;;3.80;2.60;;;;;;;0.62;71.87;96807.88;101746;1319;74840;-23
2021/11/30 04:14:44;;;;;;;3.50;2.30;;;;;;;0.56;72.30;96834.77;101713;1319;76138;-23
2021/11/30 04:17:13;;;;;;;2.50;1.70;;;;;;;1.04;70.83;96841.71;101774;1318;74303;-23
2021/11/30 04:19:42;;;;;;;4.20;2.30;;;;;;;1.28;69.65;96836.63;101743;1319;61227;-25
2021/11/30 04:22:10;;;;;;;3.50;2.20;;;;;;;1.24;69.66;96838.17;101772;1319;61559;-23
2021/11/30 04:24:40;;;;;;;3.60;2.00;;;;;;;1.14;69.88;96844.91;101708;1317;74772;-23
2021/11/30 04:41:23;;;;;;;2.00;1.70;;;;;;;0.94;71.13;96873.75;101695;1319;61887;-23
2021/11/30 04:43:52;;;;;;;3.40;2.50;;;;;;;0.88;71.70;96880.75;101667;1321;73519;-24
2021/11/30 04:46:28;;;;;;;3.40;2.50;;;;;;;0.78;72.06;96873.16;101538;1317;73413;-23
2021/11/30 04:48:58;;;;;;;3.50;2.10;;;;;;;0.72;72.62;96895.72;101760;1319;72801;-24
2021/11/30 04:51:31;;;;;;;4.00;2.90;;;;;;;0.98;71.91;96893.44;101732;1319;61116;-24
2021/11/30 04:54:01;;;;;;;2.30;2.10;;;;;;;1.38;70.57;96904.75;101763;1322;61193;-24
2021/11/30 04:56:32;;;;;;;4.60;2.20;;;;;;;1.43;69.94;96910.38;101739;1318;73420;-24
2021/11/30 04:59:01;;;;;;;2.90;2.10;;;;;;;1.28;70.17;96902.27;101772;1319;74665;-24
2021/11/30 05:01:32;;;;;;;4.60;3.00;;;;;;;1.15;70.72;96905.52;101727;1318;74486;-24
2021/11/30 05:04:01;;;;;;;5.00;3.00;;;;;;;0.96;70.97;96895.77;101766;1316;61217;-24
2021/11/30 05:06:30;;;;;;;4.10;3.10;;;;;;;0.91;71.10;96889.55;101649;1319;62360;-24
2021/11/30 05:09:02;;;;;;;3.90;2.90;;;;;;;0.99;70.85;96892.84;101763;1319;76075;-23
2021/11/30 05:11:31;;;;;;;3.40;2.80;;;;;;;1.41;69.01;96894.09;101760;1319;75964;-24
2021/11/30 05:14:00;;;;;;;4.30;2.90;;;;;;;1.48;68.53;96904.48;101762;1319;74469;-24
2021/11/30 05:16:29;;;;;;;5.40;3.40;;;;;;;1.37;68.82;96896.61;101741;1317;61106;-24
2021/11/30 05:18:58;;;;;;;5.10;2.90;;;;;;;1.27;68.81;96907.79;101786;1319;61161;-24
2021/11/30 05:21:31;;;;;;;4.50;2.90;;;;;;;1.14;69.31;96911.89;101699;1322;75611;-24
2021/11/30 05:24:03;;;;;;;3.90;2.80;;;;;;;0.98;69.88;96915.86;101735;1317;75276;-24
2021/11/30 05:26:32;;;;;;;3.70;2.80;;;;;;;0.90;70.23;96911.96;101697;1317;72915;-24
2021/11/30 05:29:03;;;;;;;3.50;2.30;;;;;;;1.18;69.01;96923.92;101717;1317;61178;-24
2021/11/30 05:31:32;;;;;;;3.10;2.40;;;;;;;1.54;67.99;96938.73;101715;1319;61188;-24
2021/11/30 05:34:01;;;;;;;3.50;2.70;;;;;;;1.42;67.40;96911.31;101700;1319;75416;-24
2021/11/30 05:36:33;;;;;;;3.20;2.40;;;;;;;1.35;67.62;96932.46;101726;1322;73423;-24
2021/11/30 05:39:03;;;;;;;5.20;3.40;;;;;;;1.18;68.11;96907.63;101702;1319;74825;-24
2021/11/30 05:41:32;;;;;;;3.60;2.50;;;;;;;1.07;68.33;96917.20;101671;1319;61263;-25
2021/11/30 05:44:00;;;;;;;3.50;3.00;;;;;;;0.94;69.14;96937.65;101738;1322;61159;-24
2021/11/30 05:46:32;;;;;;;5.20;2.50;;;;;;;0.90;68.91;96925.16;101744;1322;74140;-22
2021/11/30 05:49:05;;;;;;;2.50;2.00;;;;;;;1.23;68.23;96932.23;101743;1322;73987;-22
2021/11/30 05:51:34;;;;;;;3.70;2.80;;;;;;;1.49;67.49;96950.21;101749;1320;71352;-25
2021/11/30 05:54:03;;;;;;;5.90;2.90;;;;;;;1.44;68.00;96945.63;101736;1322;61460;-25
2021/11/30 05:56:44;;;;;;;2.90;2.10;;;;;;;1.22;69.10;96962.73;101780;1319;61240;-26
2021/11/30 05:59:15;;;;;;;4.50;3.70;;;;;;;1.15;69.09;96955.09;101751;1317;75591;-24
2021/11/30 06:01:44;;;;;;;4.00;2.40;;;;;;;0.97;70.17;96968.39;101727;1319;76150;-25
2021/11/30 06:04:13;;;;;;;4.20;2.80;;;;;;;0.96;70.53;96984.83;101783;1317;70907;-24
2021/11/30 06:06:44;;;;;;;4.40;2.90;;;;;;;1.26;69.44;96981.23;101697;1319;61179;-23
2021/11/30 06:09:13;;;;;;;3.30;2.50;;;;;;;1.59;68.40;96980.73;101742;1317;62415;-24
2021/11/30 06:11:44;;;;;;;3.90;2.70;;;;;;;1.55;68.18;96979.33;101794;1319;74538;-25
2021/11/30 06:14:13;;;;;;;5.50;2.50;;;;;;;1.47;68.66;96992.31;101759;1317;75981;-26
2021/11/30 06:16:43;;;;;;;3.10;2.30;;;;;;;1.25;69.36;96994.10;101779;1318;74689;-25
2021/11/30 06:19:13;;;;;;;4.40;2.30;;;;;;;1.13;69.55;96998.77;101752;1318;61212;-25
2021/11/30 06:21:44;;;;;;;2.80;2.10;;;;;;;1.03;70.02;96997.29;101724;1317;61230;-23
2021/11/30 06:24:14;;;;;;;4.10;2.80;;;;;;;0.96;70.55;97012.35;101762;1319;74346;-23
2021/11/30 06:26:43;;;;;;;3.80;2.80;;;;;;;1.23;69.31;96997.98;101754;1319;75081;-23
2021/11/30 06:29:12;;;;;;;4.40;2.90;;;;;;;1.56;68.07;97001.67;101732;1319;73000;-23
2021/11/30 06:31:42;;;;;;;3.40;2.60;;;;;;;1.61;66.96;96989.98;101729;1316;61154;-23
2021/11/30 06:34:11;;;;;;;3.20;2.00;;;;;;;1.42;66.44;96981.57;101727;1322;61942;-23
2021/11/30 06:36:41;;;;;;;4.80;2.50;;;;;;;1.32;66.34;96986.77;101710;1315;73764;-23
2021/11/30 06:39:09;;;;;;;4.30;3.00;;;;;;;1.17;67.71;96989.63;101724;1316;76091;-23
2021/11/30 06:41:38;;;;;;;3.00;2.50;;;;;;;1.05;67.33;96953.79;101719;1316;74872;-24
2021/11/30 06:44:08;;;;;;;3.80;2.80;;;;;;;0.95;67.20;96968.04;101649;1319;61931;-23
2021/11/30 06:46:37;;;;;;;3.00;2.20;;;;;;;0.88;67.72;96974.86;101706;1315;61716;-23
2021/11/30 06:49:14;;;;;;;7.60;1.80;;;;;;;0.79;66.64;96974.85;101628;1316;74661;-23
2021/11/30 06:51:44;;;;;;;5.20;2.30;;;;;;;1.11;65.46;96986.44;101700;1315;74889;-23
2021/11/30 06:54:12;;;;;;;2.40;1.60;;;;;;;1.31;64.62;96997.10;101649;1322;74185;-23
2021/11/30 06:56:42;;;;;;;3.60;2.20;;;;;;;1.47;64.18;97012.30;101708;1317;61213;-23
2021/11/30 06:59:11;;;;;;;2.10;1.60;;;;;;;1.35;65.37;97014.94;101728;1317;61672;-23
2021/11/30 07:01:43;;;;;;;3.00;2.20;;;;;;;1.26;65.86;97018.98;101791;1316;75419;-23
2021/11/30 07:04:12;;;;;;;2.60;1.90;;;;;;;1.10;67.12;97015.13;101817;1316;76259;-23
2021/11/30 07:10:21;;;;;;;6.10;3.40;;;;;;;0.94;68.96;97030.80;101762;1319;61199;-23
2021/11/30 07:12:24;;;;;;;4.10;2.70;;;;;;;0.98;69.62;97034.26;101640;1316;61497;-23
2021/11/30 07:14:53;;;;;;;5.30;3.10;;;;;;;1.27;68.08;97022.38;101645;1319;72863;-23
2021/11/30 07:17:21;;;;;;;4.90;3.20;;;;;;;1.17;68.08;97020.67;101674;1316;74935;-23
2021/11/30 07:19:50;;;;;;;5.10;3.10;;;;;;;1.12;68.70;97037.88;101670;1316;75516;-23
2021/11/30 07:22:20;;;;;;;6.80;3.90;;;;;;;0.96;68.52;97016.27;101675;1322;61258;-23
2021/11/30 07:24:49;;;;;;;4.50;2.80;;;;;;;0.79;69.81;97044.36;101697;1316;61145;-23
2021/11/30 07:27:18;;;;;;;4.00;2.50;;;;;;;0.58;69.64;97034.25;101708;1320;74582;-23
2021/11/30 07:29:47;;;;;;;5.00;3.60;;;;;;;0.66;69.73;97014.59;101722;1316;74569;-23
2021/11/30 07:32:16;;;;;;;3.70;3.00;;;;;;;0.63;69.65;97029.99;101704;1315;72375;-23
2021/11/30 07:34:45;;;;;;;4.10;2.70;;;;;;;1.02;68.48;97006.45;101692;1320;61224;-23
2021/11/30 07:37:14;;;;;;;3.70;2.60;;;;;;;1.26;67.73;97032.16;101678;1317;61176;-23
2021/11/30 07:39:42;;;;;;;5.00;2.80;;;;;;;1.32;67.62;97048.80;101696;1322;74696;-24
2021/11/30 07:42:11;;;;;;;5.70;3.40;;;;;;;1.15;67.78;97033.84;101709;1316;75918;-23
2021/11/30 07:44:40;;;;;;;5.60;2.80;;;;;;;1.05;68.31;97050.65;101842;1317;71629;-23
2021/11/30 07:47:09;;;;;;;5.20;2.90;;;;;;;1.04;68.46;97043.36;101825;1316;61134;-24
2021/11/30 07:49:38;;;;;;;3.00;2.60;;;;;;;0.98;68.70;97047.04;101834;1317;61109;-23
2021/11/30 07:52:07;;;;;;;3.60;2.80;;;;;;;0.86;69.47;97026.64;101664;1319;75574;-23
2021/11/30 07:54:36;;;;;;;5.20;3.00;;;;;;;1.02;68.89;97015.53;101659;1315;76185;-23
2021/11/30 07:57:05;;;;;;;4.40;3.10;;;;;;;1.39;67.89;97025.75;101690;1315;72312;-24
2021/11/30 07:59:36;;;;;;;5.20;3.70;;;;;;;1.45;67.17;97001.02;101671;1315;61187;-23
2021/11/30 08:02:05;;;;;;;5.80;4.30;;;;;;;1.49;67.37;97022.77;101674;1316;61573;-23
2021/11/30 08:04:35;;;;;;;5.20;3.40;;;;;;;1.51;67.17;97020.39;101371;1319;76235;-23
2021/11/30 08:07:04;;;;;;;5.40;3.50;;;;;;;1.37;67.61;97010.48;101673;1315;74060;-23
2021/11/30 08:09:35;;;;;;;4.80;3.80;;;;;;;1.44;67.88;97007.21;101676;1320;73063;-23
2021/11/30 08:12:05;;;;;;;6.00;3.10;;;;;;;1.36;67.93;97016.57;101700;1316;61336;-23
2021/11/30 08:14:34;;;;;;;5.40;3.70;;;;;;;1.28;68.73;97020.88;101407;1319;62081;-23
2021/11/30 08:17:06;;;;;;;8.00;4.60;;;;;;;1.16;68.77;97011.05;101707;1316;74442;-23
2021/11/30 08:19:35;;;;;;;6.20;4.40;;;;;;;0.91;69.86;97018.69;101717;1316;76184;-23
2021/11/30 08:22:04;;;;;;;4.50;2.80;;;;;;;1.14;69.48;97028.45;101737;1315;73232;-23
2021/11/30 08:24:35;;;;;;;4.70;3.50;;;;;;;1.44;68.43;97030.45;101627;1317;61338;-23
2021/11/30 08:27:04;;;;;;;4.70;3.30;;;;;;;1.49;67.44;97025.67;101663;1322;61261;-23
2021/11/30 08:29:35;;;;;;;5.10;3.50;;;;;;;1.62;67.45;97032.36;101408;1318;74041;-23
2021/11/30 08:32:05;;;;;;;5.30;3.60;;;;;;;1.64;66.76;97036.12;101635;1319;76143;-23
2021/11/30 08:34:35;;;;;;;5.80;3.20;;;;;;;1.63;66.48;97011.95;101559;1319;74233;-23
2021/11/30 08:37:05;;;;;;;6.40;4.20;;;;;;;1.64;66.35;97008.43;101520;1319;61124;-23
2021/11/30 08:39:34;;;;;;;5.30;3.40;;;;;;;1.80;66.53;97039.89;101733;1319;61662;-23
2021/11/30 08:42:08;;;;;;;5.60;4.00;;;;;;;1.81;66.44;97026.11;101755;1322;73931;-23
2021/11/30 08:44:38;;;;;;;3.80;2.70;;;;;;;1.98;66.26;97033.91;101687;1316;74627;-24
2021/11/30 08:47:09;;;;;;;5.30;3.80;;;;;;;1.77;66.41;97026.41;101696;1322;74381;-23
2021/11/30 08:49:40;;;;;;;4.50;3.70;;;;;;;1.45;67.93;97037.41;101733;1317;61285;-23
2021/11/30 08:52:12;;;;;;;5.90;3.60;;;;;;;1.34;68.33;97034.98;101729;1318;61182;-23
2021/11/30 08:54:40;;;;;;;3.70;2.60;;;;;;;1.33;68.68;97029.08;101731;1319;73906;-23
2021/11/30 08:57:09;;;;;;;3.60;2.80;;;;;;;1.26;68.60;97024.34;101558;1320;199729;-23
2021/11/30 08:59:38;;;;;;;5.60;3.90;;;;;;;1.05;69.90;97035.44;101706;1315;74422;-23
2021/11/30 09:02:08;;;;;;;5.40;3.10;;;;;;;1.34;68.87;97024.89;101752;1316;61205;-23
2021/11/30 09:04:37;;;;;;;3.70;2.90;;;;;;;1.55;68.24;97033.61;101735;1317;62096;-23
2021/11/30 09:07:05;;;;;;;4.70;3.40;;;;;;;1.51;68.49;97035.29;101723;1315;75609;-23
2021/11/30 09:09:35;;;;;;;3.40;2.30;;;;;;;1.30;69.59;97029.51;101770;1319;74826;-23
2021/11/30 09:12:05;;;;;;;4.10;3.00;;;;;;;1.21;70.19;97031.70;101765;1315;72485;-23
2021/11/30 09:14:33;;;;;;;7.80;3.20;;;;;;;0.95;70.77;97017.91;101736;1318;61187;-23
2021/11/30 09:17:03;;;;;;;5.30;3.10;;;;;;;1.12;70.55;97025.51;101731;1315;61687;-23
2021/11/30 09:19:31;;;;;;;4.50;2.90;;;;;;;1.12;70.80;97031.33;101548;1322;74622;-23
2021/11/30 09:22:00;;;;;;;3.60;2.90;;;;;;;1.53;70.11;97027.42;101710;1316;75083;-23
2021/11/30 09:24:30;;;;;;;5.80;3.40;;;;;;;1.93;68.45;97023.79;101756;1316;70611;-23
2021/11/30 09:26:59;;;;;;;5.60;3.20;;;;;;;2.01;66.96;97029.08;101707;1319;62151;-23
2021/11/30 09:29:27;;;;;;;4.40;3.60;;;;;;;1.97;67.42;97021.66;101771;1316;61272;-23
2021/11/30 09:31:56;;;;;;;5.10;2.70;;;;;;;2.06;67.82;97040.11;101649;1317;75485;-23
2021/11/30 09:34:25;;;;;;;3.80;2.80;;;;;;;1.99;67.64;97019.12;101684;1316;76265;-24
2021/11/30 09:36:55;;;;;;;3.10;2.30;;;;;;;1.74;67.78;97027.35;101712;1308;70545;-24
2021/11/30 09:39:24;;;;;;;5.80;4.10;;;;;;;1.60;68.31;97026.02;101717;1317;61251;-23
2021/11/30 09:41:53;;;;;;;4.90;2.90;;;;;;;1.44;69.36;97042.59;101739;1316;61125;-24
2021/11/30 09:44:22;;;;;;;5.80;3.90;;;;;;;1.40;69.07;97020.14;101356;1319;75590;-23
2021/11/30 09:46:51;;;;;;;4.70;3.20;;;;;;;1.40;69.02;97023.26;101740;1315;75184;-24
2021/11/30 09:49:19;;;;;;;5.90;2.50;;;;;;;1.79;67.64;97036.37;101271;1319;74391;-24
2021/11/30 09:51:49;;;;;;;5.20;2.40;;;;;;;1.92;66.70;97036.75;101667;1317;61476;-23
2021/11/30 09:54:17;;;;;;;2.80;2.20;;;;;;;1.84;66.98;97045.91;101761;1317;61218;-24
2021/11/30 09:56:46;;;;;;;5.50;3.60;;;;;;;1.52;67.82;97024.55;101839;1315;75874;-23
2021/11/30 09:59:15;;;;;;;4.30;3.50;;;;;;;1.32;68.48;97033.29;101790;1315;76694;-23
2021/11/30 10:01:44;;;;;;;3.80;2.50;;;;;;;1.14;69.21;97057.02;101839;1316;74577;-24
2021/11/30 10:04:13;;;;;;;5.20;3.20;;;;;;;1.18;69.93;97058.27;101839;1316;61159;-24
2021/11/30 10:06:43;;;;;;;3.80;2.80;;;;;;;1.17;68.95;97023.27;101707;1322;61829;-23
2021/11/30 10:09:22;;;;;;;4.00;2.60;;;;;;;1.60;68.20;97043.30;101775;1315;74940;-23
2021/11/30 10:12:01;;;;;;;4.60;3.20;;;;;;;1.58;67.16;97049.31;101744;1318;74045;-24
2021/11/30 10:14:35;;;;;;;6.30;2.90;;;;;;;1.44;67.82;97047.04;101764;1316;73196;-24
2021/11/30 10:17:22;;;;;;;5.00;2.70;;;;;;;1.44;68.75;97056.67;101772;1318;61199;-23
2021/11/30 10:20:07;;;;;;;4.40;2.60;;;;;;;1.35;68.80;97059.02;101770;1315;62147;-23
2021/11/30 10:22:45;;;;;;;3.50;2.40;;;;;;;1.37;69.33;97062.10;101740;1316;75262;-23
2021/11/30 10:25:21;;;;;;;4.10;2.70;;;;;;;1.29;69.10;97054.16;101829;1315;74443;-23
2021/11/30 10:27:54;;;;;;;3.30;2.10;;;;;;;1.58;68.20;97059.15;101753;1317;71601;-23
2021/11/30 10:30:30;;;;;;;2.50;1.90;;;;;;;2.05;66.51;97059.71;101705;1317;61272;-23
2021/11/30 10:33:11;;;;;;;4.10;2.60;;;;;;;2.05;66.09;97052.66;101695;1318;61308;-23
2021/11/30 10:35:40;;;;;;;3.20;2.30;;;;;;;2.01;66.28;97061.54;101803;1319;75754;-23
2021/11/30 10:38:09;;;;;;;5.70;2.90;;;;;;;1.87;67.00;97043.42;101792;1316;75203;-23
2021/11/30 10:40:39;;;;;;;2.80;2.40;;;;;;;1.72;67.55;97058.44;101704;1319;74476;-24
2021/11/30 10:43:09;;;;;;;5.40;2.20;;;;;;;1.55;67.29;97039.05;101589;1319;61230;-24
2021/11/30 10:45:43;;;;;;;3.60;2.50;;;;;;;1.44;67.76;97051.30;101424;1318;61225;-24
2021/11/30 10:48:14;;;;;;;2.70;2.20;;;;;;;1.33;68.21;97039.34;101673;1315;74172;-23
2021/11/30 10:50:43;;;;;;;2.60;2.10;;;;;;;1.30;68.22;97046.25;101677;1317;75047;-23
2021/11/30 10:53:21;;;;;;;2.80;2.30;;;;;;;1.21;68.64;97039.38;101676;1322;71541;-23
2021/11/30 10:55:55;;;;;;;2.60;1.90;;;;;;;1.64;67.08;97040.80;101505;1319;61213;-23
2021/11/30 10:58:26;;;;;;;2.40;1.90;;;;;;;2.02;66.10;97053.41;101568;1318;61181;-23
2021/11/30 11:00:59;;;;;;;4.30;2.70;;;;;;;1.79;66.32;97053.61;101740;1317;74162;-23
2021/11/30 11:03:28;;;;;;;3.10;2.10;;;;;;;1.73;66.12;97039.39;101710;1320;76112;-23
2021/11/30 11:08:49;;;;;;;3.40;2.30;;;;;;;1.36;68.15;97053.84;101423;1319;61112;-23
2021/11/30 11:11:44;;;;;;;6.00;2.30;;;;;;;1.19;68.92;97061.42;101473;1319;62525;-23
2021/11/30 11:14:16;;;;;;;;;;;;;;;1.19;68.86;97050.95;101565;1319;74263;-23
2021/11/30 11:16:51;;;;;;;3.30;2.50;;;;;;;1.12;69.21;97050.30;101736;1316;74655;-23
2021/11/30 11:19:43;;;;;;;2.90;1.70;;;;;;;1.25;69.12;97055.30;101624;1319;73037;-23
2021/11/30 11:22:14;;;;;;;1.30;1.20;;;;;;;1.74;67.38;97059.14;101745;1315;61236;-23
2021/11/30 11:24:43;;;;;;;2.50;1.90;;;;;;;1.78;66.54;97053.86;101366;1319;61870;-25
2021/11/30 11:27:15;;;;;;;4.90;1.70;;;;;;;1.59;67.16;97051.08;101687;1317;75640;-24
2021/11/30 11:29:44;;;;;;;3.30;2.30;;;;;;;1.47;67.17;97051.66;101702;1316;76289;-23
2021/11/30 11:32:13;;;;;;;1.40;1.30;;;;;;;1.23;68.01;97054.23;101672;1315;74422;-23
2021/11/30 11:34:42;;;;;;;6.30;2.50;;;;;;;1.17;68.56;97061.26;101658;1316;61169;-23
2021/11/30 11:37:10;;;;;;;2.90;1.70;;;;;;;1.06;67.99;97053.83;101720;1318;61146;-23
2021/11/30 11:39:39;;;;;;;4.10;2.00;;;;;;;0.89;69.05;97059.00;101676;1322;75591;-23
2021/11/30 11:42:10;;;;;;;2.50;2.00;;;;;;;0.85;69.47;97060.49;101740;1315;76357;-23
2021/11/30 11:44:39;;;;;;;3.30;1.80;;;;;;;1.25;68.40;97064.58;101645;1317;70700;-23
2021/11/30 11:47:10;;;;;;;2.30;1.60;;;;;;;1.58;67.02;97053.04;101725;1322;62096;-23
2021/11/30 11:49:41;;;;;;;2.40;1.60;;;;;;;1.40;66.63;97057.79;101700;1317;61106;-23
2021/11/30 11:52:22;;;;;;;2.30;1.50;;;;;;;1.27;66.66;97050.39;101580;1322;73475;-23
2021/11/30 11:55:03;;;;;;;1.90;1.40;;;;;;;1.18;66.63;97047.80;101624;1322;76326;-23
2021/11/30 11:57:33;;;;;;;2.60;1.70;;;;;;;1.03;66.26;97041.96;101657;1317;74546;-22
2021/11/30 12:00:25;;;;;;;2.30;1.60;;;;;;;0.89;66.67;97044.14;101574;1320;61067;-23
2021/11/30 12:03:02;;;;;;;3.30;1.60;;;;;;;0.79;67.14;97053.92;101719;1315;61173;-23
2021/11/30 12:05:56;;;;;;;2.40;1.70;;;;;;;0.68;67.58;97054.00;101385;1319;72646;-23
2021/11/30 12:08:32;;;;;;;2.80;1.70;;;;;;;0.56;67.09;97053.86;101523;1320;75048;-23
2021/11/30 12:11:03;;;;;;;1.90;1.70;;;;;;;0.52;66.58;97051.61;101736;1317;72976;-23
2021/11/30 12:13:32;;;;;;;3.60;1.40;;;;;;;0.51;65.90;97067.75;101685;1315;61109;-23
2021/11/30 12:16:05;;;;;;;2.30;1.40;;;;;;;0.47;64.46;97056.21;101726;1316;61831;-23
2021/11/30 12:18:50;;;;;;;3.40;1.60;;;;;;;0.42;64.51;97075.48;101713;1317;76585;-23
2021/11/30 12:21:23;;;;;;;2.70;1.20;;;;;;;0.41;62.42;97065.48;101751;1317;75026;-23
2021/11/30 12:23:58;;;;;;;1.70;1.20;;;;;;;0.42;61.54;97057.95;101446;1321;72752;-22
2021/11/30 12:26:30;;;;;;;1.90;1.10;;;;;;;0.41;61.80;97064.81;101746;1322;61215;-23